Estación Meteorológica Peña el Pijo (Robertgarden) [ 03/06/21 14:58:41 CET ]

Fecha Hora Presion(HPa) Temp (°C) Humedad % Rocio (°C) Viento ( m/s) Direccion Lluvia 1Hora(mm) Lluvia 24H(mm) LLuvia Total(mm)
2021-Feb-25 01:09:53 1017.900 4.2 82 1.4 - N     89.61
2021-Feb-25 02:14:18 1016.900 3.3 85 1.0 - N     89.61
2021-Feb-25 03:10:05 1017.000 2.1 85 -0.2 - N     89.61
2021-Feb-25 04:09:57 1016.800 1.5 87 -0.5 - N     89.61
2021-Feb-25 05:13:31 1016.400 0.8 87 -1.2 - N     89.61
2021-Feb-25 06:09:47 1016.500 0.5 88 -1.3 - N     89.61
2021-Feb-25 07:09:32 1016.500 -0.1 88 -1.8 - N     89.61
2021-Feb-25 08:09:39 1016.500 -0.1 89 -1.7 - N     89.61
2021-Feb-25 09:09:25 1016.900 7.9 71 3.0 - N     89.61
2021-Feb-25 10:08:57 1017.100 13.0 57 4.6 - N     89.61
2021-Feb-25 11:09:27 1016.600 15.6 54 6.3 - N     89.61
2021-Feb-25 12:09:27 1016.200 18.1 46 6.2 - N     89.61
2021-Feb-25 13:09:08 1016.100 17.9 39 3.7 - N     89.61
2021-Feb-25 14:09:35 1015.200 17.8 36 2.4 - N     89.61
2021-Feb-25 15:09:21 1014.800 18.0 38 3.4 - N     89.61
2021-Feb-25 16:09:51 1014.800 15.4 45 3.5 - N     89.61
2021-Feb-25 17:09:39 1014.800 13.3 52 3.6 - N     89.61
2021-Feb-25 18:09:18 1015.100 11.1 62 4.0 - N     89.61
2021-Feb-25 19:09:44 1015.300 9.6 69 4.2 - N     89.61
2021-Feb-25 20:09:01 1015.500 8.4 73 3.8 - N     89.61
2021-Feb-25 21:09:13 1015.800 7.6 78 4.0 - N     89.61
2021-Feb-25 22:09:05 1016.200 7.3 78 3.7 - N     89.61
2021-Feb-25 23:09:17 1016.500 6.9 80 3.7 - N     89.61

Temperatura Máxima:18°    Temperatura Mínima:
Presión Máxima:1017.900 Hpa    Presión Mínima:1014.800 Hpa


Volver